createdAt,value
2023-03-29T00:02:07.399Z,30.17
2023-03-29T00:04:34.696Z,31.15
2023-03-29T00:07:04.977Z,29.05
2023-03-29T00:09:35.862Z,27.52
2023-03-29T00:12:03.173Z,30.13
2023-03-29T00:14:31.070Z,28.30
2023-03-29T00:16:59.020Z,26.20
2023-03-29T00:19:26.768Z,25.27
2023-03-29T00:21:53.796Z,26.15
2023-03-29T00:24:21.531Z,27.80
2023-03-29T00:26:48.615Z,29.63
2023-03-29T00:29:16.095Z,30.27
2023-03-29T00:31:46.002Z,26.52
2023-03-29T00:34:12.905Z,27.48
2023-03-29T00:36:40.309Z,26.52
2023-03-29T00:39:07.386Z,24.05
2023-03-29T00:41:34.251Z,26.50
2023-03-29T00:44:03.789Z,27.63
2023-03-29T00:46:31.834Z,29.08
2023-03-29T00:49:07.246Z,29.02
2023-03-29T00:51:39.636Z,28.92
2023-03-29T00:54:14.811Z,29.23
2023-03-29T00:56:45.961Z,30.85
2023-03-29T00:59:24.798Z,29.60
2023-03-29T01:02:02.865Z,29.55
2023-03-29T01:04:37.309Z,27.52
2023-03-29T01:07:18.676Z,29.02
2023-03-29T01:09:51.850Z,30.25
2023-03-29T01:12:31.153Z,26.05
2023-03-29T01:15:14.045Z,27.67
2023-03-29T01:20:34.199Z,28.67
2023-03-29T01:23:26.997Z,28.58
2023-03-29T01:26:31.075Z,30.17
2023-03-29T01:29:10.201Z,31.33
2023-03-29T01:31:41.463Z,26.05
2023-03-29T01:34:18.116Z,29.85
2023-03-29T01:37:00.278Z,29.73
2023-03-29T01:39:27.262Z,29.05
2023-03-29T01:42:53.506Z,30.98
2023-03-29T01:45:27.751Z,26.80
2023-03-29T01:48:17.517Z,34.08
2023-03-29T01:51:07.625Z,27.23
2023-03-29T01:53:47.215Z,28.05
2023-03-29T01:56:22.861Z,27.80
2023-03-29T01:58:53.758Z,29.08
2023-03-29T02:01:26.054Z,26.25
2023-03-29T02:03:57.658Z,29.13
2023-03-29T02:06:27.185Z,29.80
2023-03-29T02:08:55.781Z,27.38
2023-03-29T02:11:24.494Z,27.17
2023-03-29T02:13:51.489Z,31.95
2023-03-29T02:16:18.805Z,29.02
2023-03-29T02:18:47.791Z,27.35
2023-03-29T02:21:40.399Z,27.95
2023-03-29T02:24:11.293Z,27.17
2023-03-29T02:26:38.676Z,29.23
2023-03-29T02:29:06.317Z,26.77
2023-03-29T02:31:38.253Z,29.80
2023-03-29T02:34:11.712Z,30.08
2023-03-29T02:36:52.756Z,31.13
2023-03-29T02:39:20.554Z,27.38
2023-03-29T02:41:51.154Z,30.13
2023-03-29T02:44:22.740Z,29.00
2023-03-29T02:46:51.464Z,31.05
2023-03-29T02:49:18.373Z,28.58
2023-03-29T02:51:47.574Z,30.38
2023-03-29T02:54:19.938Z,28.40
2023-03-29T02:56:54.351Z,29.27
2023-03-29T02:59:22.566Z,27.20
2023-03-29T03:01:50.038Z,28.17
2023-03-29T03:04:18.590Z,28.20
2023-03-29T03:06:45.443Z,26.10
2023-03-29T03:09:12.416Z,27.08
2023-03-29T03:11:42.315Z,28.30
2023-03-29T03:14:09.577Z,28.90
2023-03-29T03:16:37.178Z,25.45
2023-03-29T03:19:04.417Z,27.50
2023-03-29T03:21:31.295Z,27.08
2023-03-29T03:23:59.785Z,27.95
2023-03-29T03:26:30.202Z,26.15
2023-03-29T03:28:58.225Z,25.73
2023-03-29T03:31:45.291Z,26.02
2023-03-29T03:34:41.301Z,25.67
2023-03-29T03:37:11.922Z,29.15
2023-03-29T03:39:39.352Z,28.85
2023-03-29T03:42:08.628Z,27.45
2023-03-29T03:44:42.585Z,27.70
2023-03-29T03:47:38.262Z,28.38
2023-03-29T03:50:19.312Z,30.17
2023-03-29T03:52:46.575Z,27.50
2023-03-29T03:55:14.285Z,31.77
2023-03-29T03:57:45.069Z,27.42
2023-03-29T04:00:21.656Z,29.73
2023-03-29T04:03:02.275Z,28.15
2023-03-29T04:05:33.970Z,27.38
2023-03-29T04:08:01.000Z,27.15
2023-03-29T04:10:55.812Z,26.63
2023-03-29T04:13:28.486Z,26.98
2023-03-29T04:16:21.776Z,29.88
2023-03-29T04:18:49.369Z,27.65
2023-03-29T04:21:17.876Z,30.50
2023-03-29T04:23:47.893Z,28.17
2023-03-29T04:26:15.909Z,29.58
2023-03-29T04:28:47.686Z,27.75
2023-03-29T04:34:18.721Z,31.92
2023-03-29T04:36:46.827Z,29.65
2023-03-29T04:39:19.790Z,31.00
2023-03-29T04:41:52.032Z,30.45
2023-03-29T04:44:22.616Z,29.23
2023-03-29T04:46:50.276Z,28.25
2023-03-29T04:49:43.072Z,30.90
2023-03-29T04:52:17.710Z,28.98
2023-03-29T04:54:44.478Z,27.42
2023-03-29T04:57:31.660Z,26.90
2023-03-29T05:00:20.395Z,28.73
2023-03-29T05:03:04.463Z,25.20
2023-03-29T05:05:35.869Z,27.10
2023-03-29T05:08:03.653Z,27.67
2023-03-29T05:10:49.914Z,27.15
2023-03-29T05:13:17.870Z,28.42
2023-03-29T05:15:44.631Z,28.70
2023-03-29T05:18:11.625Z,27.45
2023-03-29T05:20:38.521Z,30.02
2023-03-29T05:23:05.653Z,27.90
2023-03-29T05:25:53.205Z,28.38
2023-03-29T05:28:20.409Z,27.48
2023-03-29T05:30:48.562Z,27.58
2023-03-29T05:33:20.290Z,30.85
2023-03-29T05:35:47.181Z,29.13
2023-03-29T05:38:14.129Z,27.25
2023-03-29T05:40:43.616Z,26.15
2023-03-29T05:43:40.312Z,26.08
2023-03-29T05:46:09.779Z,26.05
2023-03-29T05:48:42.053Z,27.13
2023-03-29T05:51:10.201Z,26.65
2023-03-29T05:53:37.805Z,28.52
2023-03-29T05:56:05.084Z,26.83
2023-03-29T05:58:31.862Z,27.27
2023-03-29T06:01:00.433Z,25.35
2023-03-29T06:03:47.824Z,25.98
2023-03-29T06:06:17.132Z,27.60
2023-03-29T06:08:44.858Z,29.30
2023-03-29T06:11:24.410Z,30.55
2023-03-29T06:14:15.551Z,27.58
2023-03-29T06:16:48.391Z,25.83
2023-03-29T06:19:16.014Z,29.27
2023-03-29T06:21:43.238Z,28.88
2023-03-29T06:24:16.446Z,27.42
2023-03-29T06:29:16.656Z,29.45
2023-03-29T06:31:46.368Z,29.50
2023-03-29T06:34:31.524Z,27.63
2023-03-29T06:37:36.941Z,30.95
2023-03-29T06:40:27.597Z,28.42
2023-03-29T06:42:59.384Z,28.90
2023-03-29T06:45:46.370Z,28.25
2023-03-29T06:50:54.572Z,30.13
2023-03-29T06:53:24.723Z,26.90
2023-03-29T06:55:58.001Z,27.00
2023-03-29T06:58:45.206Z,26.50
2023-03-29T07:01:27.091Z,28.80
2023-03-29T07:04:04.614Z,27.55
2023-03-29T07:06:48.233Z,28.95
2023-03-29T07:09:17.716Z,28.50
2023-03-29T07:12:06.675Z,28.30
2023-03-29T07:14:34.313Z,28.52
2023-03-29T07:17:01.113Z,28.13
2023-03-29T07:19:32.139Z,30.58
2023-03-29T07:22:13.546Z,29.50
2023-03-29T07:24:49.330Z,30.45
2023-03-29T07:27:16.795Z,28.55
2023-03-29T07:29:49.205Z,29.58
2023-03-29T07:32:17.809Z,29.70
2023-03-29T07:34:44.740Z,25.42
2023-03-29T07:37:30.719Z,28.23
2023-03-29T07:40:00.194Z,39.55
2023-03-29T07:42:39.421Z,35.05
2023-03-29T07:45:10.042Z,35.00
2023-03-29T07:47:48.871Z,37.90
2023-03-29T07:50:16.932Z,36.22
2023-03-29T07:52:44.716Z,35.90
2023-03-29T07:55:13.355Z,39.47
2023-03-29T07:58:01.469Z,33.53
2023-03-29T08:00:28.476Z,34.83
2023-03-29T08:03:28.826Z,36.67
2023-03-29T08:05:55.646Z,35.67
2023-03-29T08:08:22.496Z,34.42
2023-03-29T08:10:53.868Z,33.70
2023-03-29T08:16:24.540Z,35.67
2023-03-29T08:19:00.751Z,34.38
2023-03-29T08:21:41.340Z,33.58
2023-03-29T08:24:08.518Z,33.38
2023-03-29T08:26:44.935Z,31.95
2023-03-29T08:29:13.741Z,30.25
2023-03-29T08:31:40.678Z,34.65
2023-03-29T08:34:07.580Z,36.60
2023-03-29T08:36:54.059Z,33.30
2023-03-29T08:39:27.676Z,31.70
2023-03-29T08:42:37.682Z,33.60
2023-03-29T08:45:53.762Z,31.52
2023-03-29T08:48:28.210Z,33.90
2023-03-29T08:51:33.752Z,31.88
2023-03-29T08:54:06.351Z,30.70
2023-03-29T08:56:52.767Z,33.53
2023-03-29T08:59:33.294Z,31.98
2023-03-29T09:02:04.664Z,35.25
2023-03-29T09:04:34.945Z,31.15
2023-03-29T09:07:14.791Z,30.67
2023-03-29T09:09:45.756Z,29.95
2023-03-29T09:12:36.732Z,32.80
2023-03-29T09:15:16.529Z,31.67
2023-03-29T09:18:26.675Z,31.35
2023-03-29T09:21:37.981Z,31.30
2023-03-29T09:24:27.697Z,31.85
2023-03-29T09:27:15.239Z,31.70
2023-03-29T09:30:25.924Z,30.02
2023-03-29T09:33:15.846Z,30.93
2023-03-29T09:36:32.033Z,31.10
2023-03-29T09:38:59.323Z,31.33
2023-03-29T09:41:43.309Z,29.73
2023-03-29T09:46:56.015Z,26.63
2023-03-29T09:49:33.288Z,30.52
2023-03-29T09:52:05.863Z,30.70
2023-03-29T09:54:33.524Z,29.55
2023-03-29T09:57:26.589Z,30.27
2023-03-29T09:59:54.573Z,30.50
2023-03-29T10:02:21.756Z,26.48
2023-03-29T10:05:00.679Z,32.08
2023-03-29T10:07:44.723Z,31.23
2023-03-29T10:10:32.369Z,27.73
2023-03-29T10:13:23.280Z,28.27
2023-03-29T10:16:24.602Z,28.80
2023-03-29T10:18:51.899Z,30.55
2023-03-29T10:21:23.611Z,31.73
2023-03-29T10:23:58.493Z,29.77
2023-03-29T10:26:31.804Z,29.13
2023-03-29T10:29:01.565Z,30.67
2023-03-29T10:31:32.903Z,33.35
2023-03-29T10:34:05.491Z,29.35
2023-03-29T10:36:32.643Z,30.75
2023-03-29T10:39:05.098Z,31.38
2023-03-29T10:41:34.202Z,26.58
2023-03-29T10:44:01.756Z,28.92
2023-03-29T10:46:30.985Z,27.90
2023-03-29T10:49:10.313Z,29.00
2023-03-29T10:51:37.479Z,29.30
2023-03-29T10:54:05.277Z,27.63
2023-03-29T10:56:43.575Z,26.42
2023-03-29T10:59:35.335Z,27.02
2023-03-29T11:02:17.189Z,27.20
2023-03-29T11:05:08.342Z,26.20
2023-03-29T11:08:04.976Z,26.10
2023-03-29T11:10:50.457Z,29.63
2023-03-29T11:13:35.902Z,28.13
2023-03-29T11:16:39.304Z,26.70
2023-03-29T11:19:51.659Z,25.05
2023-03-29T11:22:52.364Z,29.25
2023-03-29T11:25:30.995Z,28.33
2023-03-29T11:28:12.332Z,26.38
2023-03-29T11:30:48.651Z,25.83
2023-03-29T11:33:30.189Z,24.95
2023-03-29T11:36:16.800Z,23.90
2023-03-29T11:39:36.245Z,25.65
2023-03-29T11:42:18.754Z,24.30
2023-03-29T11:44:47.045Z,25.15
2023-03-29T11:47:28.972Z,28.15
2023-03-29T11:50:18.568Z,23.17
2023-03-29T11:52:54.320Z,26.15
2023-03-29T11:55:37.049Z,26.85
2023-03-29T11:58:15.865Z,23.45
2023-03-29T12:00:56.925Z,25.55
2023-03-29T12:03:46.789Z,26.35
2023-03-29T12:06:49.869Z,26.48
2023-03-29T12:09:39.846Z,24.90
2023-03-29T12:12:51.350Z,23.05
2023-03-29T12:15:24.971Z,24.98
2023-03-29T12:18:17.627Z,27.43
2023-03-29T12:20:49.940Z,27.17
2023-03-29T12:23:18.677Z,24.50
2023-03-29T12:26:04.711Z,25.30
2023-03-29T12:28:56.877Z,23.35
2023-03-29T12:31:31.147Z,25.45
2023-03-29T12:34:41.590Z,24.52
2023-03-29T12:37:56.542Z,24.90
2023-03-29T12:40:48.692Z,23.65
2023-03-29T12:43:39.078Z,25.65
2023-03-29T12:46:26.970Z,26.85
2023-03-29T12:48:57.346Z,28.08
2023-03-29T12:51:32.494Z,25.13
2023-03-29T12:54:16.618Z,25.58
2023-03-29T12:56:52.541Z,25.85
2023-03-29T12:59:46.904Z,26.67
2023-03-29T13:02:17.736Z,28.15
2023-03-29T13:04:57.132Z,25.33
2023-03-29T13:07:23.869Z,27.38
2023-03-29T13:09:59.029Z,24.92
2023-03-29T13:12:46.451Z,27.88
2023-03-29T13:15:18.932Z,32.35
2023-03-29T13:18:03.637Z,26.45
2023-03-29T13:20:46.126Z,26.08
2023-03-29T13:23:46.526Z,24.95
2023-03-29T13:26:27.170Z,25.67
2023-03-29T13:28:55.027Z,27.45
2023-03-29T13:31:38.510Z,24.75
2023-03-29T13:34:39.242Z,25.38
2023-03-29T13:37:34.509Z,25.60
2023-03-29T13:40:01.845Z,24.42
2023-03-29T13:42:40.020Z,23.83
2023-03-29T13:45:29.732Z,22.58
2023-03-29T13:48:29.742Z,24.48
2023-03-29T13:51:19.816Z,25.98
2023-03-29T13:54:16.103Z,26.70
2023-03-29T13:56:55.100Z,23.00
2023-03-29T13:59:38.006Z,23.27
2023-03-29T14:02:07.226Z,24.15
2023-03-29T14:04:45.056Z,23.23
2023-03-29T14:07:14.655Z,22.77
2023-03-29T14:09:45.919Z,23.20
2023-03-29T14:12:14.554Z,23.98
2023-03-29T14:14:58.902Z,22.30
2023-03-29T14:17:32.146Z,21.77
2023-03-29T14:20:15.255Z,24.02
2023-03-29T14:22:42.529Z,25.73
2023-03-29T14:25:17.157Z,23.48
2023-03-29T14:27:44.849Z,22.48
2023-03-29T14:30:25.634Z,23.25
2023-03-29T14:32:53.850Z,23.77
2023-03-29T14:35:30.501Z,25.60
2023-03-29T14:37:57.468Z,23.38
2023-03-29T14:40:24.546Z,25.35
2023-03-29T14:42:51.426Z,23.88
2023-03-29T14:45:23.398Z,24.70
2023-03-29T14:47:50.761Z,26.38
2023-03-29T14:50:24.548Z,23.85
2023-03-29T14:52:52.472Z,25.42
2023-03-29T14:55:23.659Z,24.88
2023-03-29T14:57:55.722Z,25.75
2023-03-29T15:00:42.328Z,24.35
2023-03-29T15:03:14.992Z,26.27
2023-03-29T15:05:49.038Z,21.83
2023-03-29T15:08:31.328Z,23.23
2023-03-29T15:10:59.164Z,23.17
2023-03-29T15:13:32.811Z,24.13
2023-03-29T15:16:03.803Z,24.20
2023-03-29T15:18:38.551Z,24.27
2023-03-29T15:21:07.364Z,24.50
2023-03-29T15:23:42.379Z,23.58
2023-03-29T15:26:14.818Z,23.20
2023-03-29T15:29:02.957Z,24.75
2023-03-29T15:31:39.616Z,27.02
2023-03-29T15:34:35.288Z,23.98
2023-03-29T15:37:02.522Z,25.90
2023-03-29T15:39:43.913Z,21.52
2023-03-29T15:42:11.035Z,26.38
2023-03-29T15:44:39.011Z,24.83
2023-03-29T15:47:13.257Z,30.83
2023-03-29T15:52:07.322Z,25.65
2023-03-29T15:54:35.001Z,25.77
2023-03-29T15:57:06.435Z,26.30
2023-03-29T15:59:34.115Z,24.17
2023-03-29T16:02:01.044Z,26.85
2023-03-29T16:04:27.848Z,23.45
2023-03-29T16:06:55.564Z,28.52
2023-03-29T16:09:23.362Z,24.70
2023-03-29T16:11:50.612Z,27.40
2023-03-29T16:14:30.397Z,26.95
2023-03-29T16:16:59.563Z,27.95
2023-03-29T16:19:27.942Z,24.05
2023-03-29T16:21:55.806Z,26.50
2023-03-29T16:24:26.678Z,28.05
2023-03-29T16:26:56.530Z,25.95
2023-03-29T16:29:24.794Z,24.67
2023-03-29T16:31:52.701Z,27.10
2023-03-29T16:34:20.968Z,23.60
2023-03-29T16:36:49.136Z,24.58
2023-03-29T16:39:17.469Z,23.08
2023-03-29T16:41:46.869Z,26.95
2023-03-29T16:44:18.124Z,24.80
2023-03-29T16:46:45.921Z,27.52
2023-03-29T16:49:18.033Z,26.20
2023-03-29T16:51:46.879Z,25.60
2023-03-29T16:54:14.985Z,26.83
2023-03-29T16:56:41.912Z,25.55
2023-03-29T16:59:09.370Z,25.25
2023-03-29T17:01:36.726Z,24.90
2023-03-29T17:04:04.142Z,24.58
2023-03-29T17:06:32.531Z,27.05
2023-03-29T17:08:59.670Z,21.85
2023-03-29T17:11:28.361Z,25.17
2023-03-29T17:13:55.987Z,25.83
2023-03-29T17:16:23.161Z,24.73
2023-03-29T17:18:50.327Z,25.20
2023-03-29T17:21:17.455Z,24.33
2023-03-29T17:23:44.457Z,23.52
2023-03-29T17:26:11.892Z,24.23
2023-03-29T17:28:38.919Z,23.02
2023-03-29T17:31:10.003Z,24.05
2023-03-29T17:33:37.404Z,25.30
2023-03-29T17:36:06.270Z,23.60
2023-03-29T17:38:34.340Z,24.55
2023-03-29T17:41:02.878Z,24.42
2023-03-29T17:43:29.974Z,23.30
2023-03-29T17:45:56.915Z,26.17
2023-03-29T17:48:24.798Z,24.58
2023-03-29T17:50:51.946Z,23.20
2023-03-29T17:53:18.932Z,23.48
2023-03-29T17:55:46.098Z,22.65
2023-03-29T17:58:12.942Z,21.08
2023-03-29T18:00:39.970Z,24.60
2023-03-29T18:03:06.953Z,23.58
2023-03-29T18:05:35.708Z,26.42
2023-03-29T18:08:03.141Z,24.83
2023-03-29T18:10:30.300Z,26.50
2023-03-29T18:12:57.457Z,27.23
2023-03-29T18:15:24.333Z,22.88
2023-03-29T18:17:51.147Z,26.88
2023-03-29T18:20:18.380Z,28.15
2023-03-29T18:22:45.434Z,29.92
2023-03-29T18:25:12.270Z,26.92
2023-03-29T18:27:39.825Z,27.08
2023-03-29T18:30:08.717Z,27.48
2023-03-29T18:32:36.341Z,27.00
2023-03-29T18:35:03.663Z,26.02
2023-03-29T18:37:30.488Z,27.73
2023-03-29T18:40:00.278Z,26.92
2023-03-29T18:42:27.305Z,26.70
2023-03-29T18:44:54.086Z,28.48
2023-03-29T18:47:20.965Z,32.13
2023-03-29T18:49:48.078Z,29.48
2023-03-29T18:52:14.903Z,28.42
2023-03-29T18:54:42.256Z,23.83
2023-03-29T18:57:09.478Z,29.98
2023-03-29T18:59:36.634Z,24.25
2023-03-29T19:02:04.195Z,25.17
2023-03-29T19:04:31.081Z,26.08
2023-03-29T19:06:59.761Z,24.38
2023-03-29T19:09:27.471Z,28.42
2023-03-29T19:11:54.372Z,25.40
2023-03-29T19:14:25.373Z,26.45
2023-03-29T19:16:52.755Z,26.55
2023-03-29T19:19:22.603Z,26.80
2023-03-29T19:21:50.166Z,29.08
2023-03-29T19:24:20.197Z,23.65
2023-03-29T19:26:50.148Z,26.52
2023-03-29T19:29:17.675Z,25.38
2023-03-29T19:31:44.525Z,25.27
2023-03-29T19:34:11.673Z,28.77
2023-03-29T19:36:41.867Z,26.58
2023-03-29T19:39:08.724Z,35.22
2023-03-29T19:41:35.651Z,29.17
2023-03-29T19:44:02.881Z,29.40
2023-03-29T19:46:30.003Z,31.98
2023-03-29T19:48:56.871Z,30.65
2023-03-29T19:51:23.924Z,28.65
2023-03-29T19:53:50.753Z,30.67
2023-03-29T19:56:17.850Z,33.67
2023-03-29T19:58:44.858Z,28.02
2023-03-29T20:01:11.712Z,32.20
2023-03-29T20:03:40.428Z,28.48
2023-03-29T20:06:10.333Z,25.85
2023-03-29T20:08:38.890Z,28.98
2023-03-29T20:11:10.333Z,27.50
2023-03-29T20:13:41.062Z,27.58
2023-03-29T20:16:14.765Z,36.25
2023-03-29T20:18:44.838Z,26.03
2023-03-29T20:21:14.135Z,28.42
2023-03-29T20:23:41.163Z,27.27
2023-03-29T20:26:09.041Z,26.52
2023-03-29T20:28:37.684Z,28.33
2023-03-29T20:31:07.830Z,26.13
2023-03-29T20:33:34.687Z,28.63
2023-03-29T20:36:01.600Z,28.45
2023-03-29T20:38:28.511Z,28.30
2023-03-29T20:40:55.459Z,26.15
2023-03-29T20:43:22.572Z,26.65
2023-03-29T20:45:53.347Z,26.48
2023-03-29T20:48:23.464Z,25.90
2023-03-29T20:50:51.377Z,28.67
2023-03-29T20:53:20.268Z,26.17
2023-03-29T20:55:47.903Z,30.48
2023-03-29T20:58:15.717Z,30.52
2023-03-29T21:00:43.793Z,28.73
2023-03-29T21:03:11.096Z,31.95
2023-03-29T21:05:38.879Z,29.98
2023-03-29T21:08:06.096Z,33.47
2023-03-29T21:10:33.309Z,29.80
2023-03-29T21:13:00.636Z,32.88
2023-03-29T21:15:30.578Z,26.17
2023-03-29T21:17:58.017Z,25.70
2023-03-29T21:20:25.496Z,29.98
2023-03-29T21:22:52.244Z,30.00
2023-03-29T21:25:19.401Z,29.88
2023-03-29T21:27:47.355Z,29.27
2023-03-29T21:30:14.479Z,29.38
2023-03-29T21:32:41.642Z,29.50
2023-03-29T21:35:09.590Z,30.83
2023-03-29T21:37:36.347Z,29.45
2023-03-29T21:40:07.123Z,32.80
2023-03-29T21:42:34.626Z,33.10
2023-03-29T21:45:01.680Z,33.72
2023-03-29T21:47:28.754Z,29.38
2023-03-29T21:49:55.559Z,28.80
2023-03-29T21:52:22.637Z,31.40
2023-03-29T21:54:49.557Z,30.48
2023-03-29T21:57:16.452Z,30.73
2023-03-29T21:59:43.261Z,28.05
2023-03-29T22:02:10.275Z,27.23
2023-03-29T22:04:37.812Z,26.88
2023-03-29T22:07:06.050Z,30.00
2023-03-29T22:09:35.344Z,27.80
2023-03-29T22:12:04.568Z,29.20
2023-03-29T22:14:35.223Z,29.80
2023-03-29T22:17:07.217Z,28.70
2023-03-29T22:19:44.824Z,26.13
2023-03-29T22:22:14.317Z,29.02
2023-03-29T22:24:42.300Z,28.90
2023-03-29T22:27:10.572Z,28.02
2023-03-29T22:29:37.584Z,25.80
2023-03-29T22:32:04.898Z,26.98
2023-03-29T22:34:32.242Z,28.45
2023-03-29T22:36:59.130Z,29.17
2023-03-29T22:39:25.960Z,28.67
2023-03-29T22:41:52.886Z,30.10
2023-03-29T22:44:19.885Z,30.45
2023-03-29T22:46:46.853Z,32.25
2023-03-29T22:49:13.837Z,30.70
2023-03-29T22:51:40.661Z,30.42
2023-03-29T22:54:07.923Z,29.08
2023-03-29T22:56:34.997Z,31.25
2023-03-29T22:59:01.901Z,30.65
2023-03-29T23:01:28.768Z,31.17
2023-03-29T23:03:55.710Z,29.58
2023-03-29T23:06:22.461Z,31.27
2023-03-29T23:08:49.426Z,28.20
2023-03-29T23:11:16.279Z,27.85
2023-03-29T23:13:43.364Z,29.17
2023-03-29T23:16:10.401Z,28.70
2023-03-29T23:18:37.653Z,27.95
2023-03-29T23:21:06.268Z,28.58
2023-03-29T23:23:33.701Z,28.40
2023-03-29T23:26:01.201Z,29.30
2023-03-29T23:28:30.509Z,28.90
2023-03-29T23:31:09.345Z,27.65
2023-03-29T23:33:40.397Z,27.67
2023-03-29T23:36:16.597Z,26.98
2023-03-29T23:38:45.614Z,28.90
2023-03-29T23:41:13.291Z,30.13
2023-03-29T23:43:42.499Z,28.55
2023-03-29T23:46:16.705Z,29.10
2023-03-29T23:48:48.999Z,26.42
2023-03-29T23:51:23.009Z,28.88
2023-03-29T23:53:50.625Z,28.20
2023-03-29T23:56:17.542Z,27.42
2023-03-29T23:58:44.532Z,31.92
